sensor_id;sensor_type;location;lat;lon;timestamp;temperature;humidity
3876;DHT22;1953;51.222;6.624;2023-08-06T00:04:42;17.70;1.00
3876;DHT22;1953;51.222;6.624;2023-08-06T00:09:24;17.70;1.00
3876;DHT22;1953;51.222;6.624;2023-08-06T00:16:10;20.40;1.00
3876;DHT22;1953;51.222;6.624;2023-08-06T00:20:52;17.50;1.00
3876;DHT22;1953;51.222;6.624;2023-08-06T00:25:36;17.60;1.00
3876;DHT22;1953;51.222;6.624;2023-08-06T00:30:18;17.60;1.00
3876;DHT22;1953;51.222;6.624;2023-08-06T00:35:02;17.60;1.00
3876;DHT22;1953;51.222;6.624;2023-08-06T00:39:45;17.60;1.00
3876;DHT22;1953;51.222;6.624;2023-08-06T00:44:28;17.60;1.00
3876;DHT22;1953;51.222;6.624;2023-08-06T00:49:10;17.60;1.00
3876;DHT22;1953;51.222;6.624;2023-08-06T00:53:54;17.60;1.00
3876;DHT22;1953;51.222;6.624;2023-08-06T00:58:38;17.60;1.00
3876;DHT22;1953;51.222;6.624;2023-08-06T01:03:21;17.60;1.00
3876;DHT22;1953;51.222;6.624;2023-08-06T01:08:13;17.50;1.00
3876;DHT22;1953;51.222;6.624;2023-08-06T01:13:07;17.50;1.00
3876;DHT22;1953;51.222;6.624;2023-08-06T01:17:50;17.60;1.00
3876;DHT22;1953;51.222;6.624;2023-08-06T01:22:35;17.60;1.00
3876;DHT22;1953;51.222;6.624;2023-08-06T01:27:25;17.60;1.00
3876;DHT22;1953;51.222;6.624;2023-08-06T01:32:11;17.60;1.00
3876;DHT22;1953;51.222;6.624;2023-08-06T01:36:54;17.60;1.00
3876;DHT22;1953;51.222;6.624;2023-08-06T01:41:38;17.60;1.00
3876;DHT22;1953;51.222;6.624;2023-08-06T01:46:20;17.60;1.00
3876;DHT22;1953;51.222;6.624;2023-08-06T01:51:04;17.60;1.00
3876;DHT22;1953;51.222;6.624;2023-08-06T01:55:48;17.50;1.00
3876;DHT22;1953;51.222;6.624;2023-08-06T02:00:32;17.50;1.00
3876;DHT22;1953;51.222;6.624;2023-08-06T02:05:14;17.50;1.00
3876;DHT22;1953;51.222;6.624;2023-08-06T02:09:57;17.50;1.00
3876;DHT22;1953;51.222;6.624;2023-08-06T02:14:39;17.50;1.00
3876;DHT22;1953;51.222;6.624;2023-08-06T02:19:23;17.50;1.00
3876;DHT22;1953;51.222;6.624;2023-08-06T02:24:07;17.60;1.00
3876;DHT22;1953;51.222;6.624;2023-08-06T02:28:49;17.60;1.00
3876;DHT22;1953;51.222;6.624;2023-08-06T02:33:32;17.60;1.00
3876;DHT22;1953;51.222;6.624;2023-08-06T02:38:16;17.60;1.00
3876;DHT22;1953;51.222;6.624;2023-08-06T02:42:58;17.60;1.00
3876;DHT22;1953;51.222;6.624;2023-08-06T02:47:41;17.60;1.00
3876;DHT22;1953;51.222;6.624;2023-08-06T02:52:23;17.60;1.00
3876;DHT22;1953;51.222;6.624;2023-08-06T02:57:07;17.60;1.00
3876;DHT22;1953;51.222;6.624;2023-08-06T03:01:50;17.60;1.00
3876;DHT22;1953;51.222;6.624;2023-08-06T03:06:32;17.70;1.00
3876;DHT22;1953;51.222;6.624;2023-08-06T03:11:15;17.70;1.00
3876;DHT22;1953;51.222;6.624;2023-08-06T03:15:59;17.70;1.00
3876;DHT22;1953;51.222;6.624;2023-08-06T03:20:42;17.80;1.00
3876;DHT22;1953;51.222;6.624;2023-08-06T03:25:25;17.80;1.00
3876;DHT22;1953;51.222;6.624;2023-08-06T03:30:08;17.80;1.00
3876;DHT22;1953;51.222;6.624;2023-08-06T03:34:52;17.80;1.00
3876;DHT22;1953;51.222;6.624;2023-08-06T03:39:34;17.80;1.00
3876;DHT22;1953;51.222;6.624;2023-08-06T03:44:17;17.70;1.00
3876;DHT22;1953;51.222;6.624;2023-08-06T03:48:59;17.70;1.00
3876;DHT22;1953;51.222;6.624;2023-08-06T03:53:43;17.70;1.00
3876;DHT22;1953;51.222;6.624;2023-08-06T03:58:26;17.70;1.00
3876;DHT22;1953;51.222;6.624;2023-08-06T04:03:08;17.80;1.00
3876;DHT22;1953;51.222;6.624;2023-08-06T04:07:51;17.70;1.00
3876;DHT22;1953;51.222;6.624;2023-08-06T04:12:35;17.70;1.00
3876;DHT22;1953;51.222;6.624;2023-08-06T04:17:21;17.70;1.00
3876;DHT22;1953;51.222;6.624;2023-08-06T04:22:05;17.70;1.00
3876;DHT22;1953;51.222;6.624;2023-08-06T04:26:47;17.70;1.00
3876;DHT22;1953;51.222;6.624;2023-08-06T04:31:31;17.70;1.00
3876;DHT22;1953;51.222;6.624;2023-08-06T04:36:15;17.70;1.00
3876;DHT22;1953;51.222;6.624;2023-08-06T04:40:58;17.70;1.00
3876;DHT22;1953;51.222;6.624;2023-08-06T04:45:46;17.70;1.00
3876;DHT22;1953;51.222;6.624;2023-08-06T04:50:30;17.70;1.00
3876;DHT22;1953;51.222;6.624;2023-08-06T04:55:12;17.60;1.00
3876;DHT22;1953;51.222;6.624;2023-08-06T04:59:55;17.60;1.00
3876;DHT22;1953;51.222;6.624;2023-08-06T05:04:37;17.50;1.00
3876;DHT22;1953;51.222;6.624;2023-08-06T05:09:21;17.40;1.00
3876;DHT22;1953;51.222;6.624;2023-08-06T05:14:04;17.40;1.00
3876;DHT22;1953;51.222;6.624;2023-08-06T05:18:46;17.40;1.00
3876;DHT22;1953;51.222;6.624;2023-08-06T05:23:29;17.30;1.00
3876;DHT22;1953;51.222;6.624;2023-08-06T05:28:13;17.30;1.00
3876;DHT22;1953;51.222;6.624;2023-08-06T05:32:55;17.40;1.00
3876;DHT22;1953;51.222;6.624;2023-08-06T05:37:38;17.40;1.00
3876;DHT22;1953;51.222;6.624;2023-08-06T05:42:20;17.60;1.00
3876;DHT22;1953;51.222;6.624;2023-08-06T05:47:05;17.60;1.00
3876;DHT22;1953;51.222;6.624;2023-08-06T05:51:47;17.60;1.00
3876;DHT22;1953;51.222;6.624;2023-08-06T05:56:30;17.60;1.00
3876;DHT22;1953;51.222;6.624;2023-08-06T06:01:13;17.70;1.00
3876;DHT22;1953;51.222;6.624;2023-08-06T06:05:57;17.80;1.00
3876;DHT22;1953;51.222;6.624;2023-08-06T06:10:40;17.90;1.00
3876;DHT22;1953;51.222;6.624;2023-08-06T06:15:22;18.00;1.00
3876;DHT22;1953;51.222;6.624;2023-08-06T06:20:06;18.10;1.00
3876;DHT22;1953;51.222;6.624;2023-08-06T06:24:50;18.20;1.00
3876;DHT22;1953;51.222;6.624;2023-08-06T06:29:33;18.20;1.00
3876;DHT22;1953;51.222;6.624;2023-08-06T06:34:15;18.30;1.00
3876;DHT22;1953;51.222;6.624;2023-08-06T06:38:58;18.30;1.00
3876;DHT22;1953;51.222;6.624;2023-08-06T06:43:42;18.30;1.00
3876;DHT22;1953;51.222;6.624;2023-08-06T06:48:27;18.40;1.00
3876;DHT22;1953;51.222;6.624;2023-08-06T06:53:09;18.40;1.00
3876;DHT22;1953;51.222;6.624;2023-08-06T06:57:52;18.30;1.00
3876;DHT22;1953;51.222;6.624;2023-08-06T07:02:36;18.40;1.00
3876;DHT22;1953;51.222;6.624;2023-08-06T07:07:18;18.50;1.00
3876;DHT22;1953;51.222;6.624;2023-08-06T07:12:01;18.60;1.00
3876;DHT22;1953;51.222;6.624;2023-08-06T07:16:43;18.70;1.00
3876;DHT22;1953;51.222;6.624;2023-08-06T07:21:27;18.70;1.00
3876;DHT22;1953;51.222;6.624;2023-08-06T07:26:10;18.80;1.00
3876;DHT22;1953;51.222;6.624;2023-08-06T07:30:52;18.80;1.00
3876;DHT22;1953;51.222;6.624;2023-08-06T07:35:35;18.80;1.00
3876;DHT22;1953;51.222;6.624;2023-08-06T07:40:19;18.80;1.00
3876;DHT22;1953;51.222;6.624;2023-08-06T07:45:02;18.90;1.00
3876;DHT22;1953;51.222;6.624;2023-08-06T07:49:45;18.90;1.00
3876;DHT22;1953;51.222;6.624;2023-08-06T07:54:27;19.00;1.00
3876;DHT22;1953;51.222;6.624;2023-08-06T07:59:11;19.10;1.00
3876;DHT22;1953;51.222;6.624;2023-08-06T08:03:54;19.30;1.00
3876;DHT22;1953;51.222;6.624;2023-08-06T08:08:36;19.40;1.00
3876;DHT22;1953;51.222;6.624;2023-08-06T08:13:20;19.50;1.00
3876;DHT22;1953;51.222;6.624;2023-08-06T08:18:04;19.50;1.00
3876;DHT22;1953;51.222;6.624;2023-08-06T08:22:46;19.30;1.00
3876;DHT22;1953;51.222;6.624;2023-08-06T08:27:29;19.30;1.00
3876;DHT22;1953;51.222;6.624;2023-08-06T08:32:12;19.40;1.00
3876;DHT22;1953;51.222;6.624;2023-08-06T08:36:56;19.60;1.00
3876;DHT22;1953;51.222;6.624;2023-08-06T08:41:40;19.70;1.00
3876;DHT22;1953;51.222;6.624;2023-08-06T08:46:23;20.00;1.00
3876;DHT22;1953;51.222;6.624;2023-08-06T08:51:06;20.00;1.00
3876;DHT22;1953;51.222;6.624;2023-08-06T08:55:52;20.00;1.00
3876;DHT22;1953;51.222;6.624;2023-08-06T09:00:35;20.00;1.00
3876;DHT22;1953;51.222;6.624;2023-08-06T09:05:18;19.70;1.00
3876;DHT22;1953;51.222;6.624;2023-08-06T09:10:02;19.60;1.00
3876;DHT22;1953;51.222;6.624;2023-08-06T09:14:47;19.20;1.00
3876;DHT22;1953;51.222;6.624;2023-08-06T09:19:30;19.30;1.00
3876;DHT22;1953;51.222;6.624;2023-08-06T09:24:13;19.20;1.00
3876;DHT22;1953;51.222;6.624;2023-08-06T09:28:55;19.10;1.00
3876;DHT22;1953;51.222;6.624;2023-08-06T09:33:43;19.10;1.00
3876;DHT22;1953;51.222;6.624;2023-08-06T09:38:38;19.20;1.00
3876;DHT22;1953;51.222;6.624;2023-08-06T09:43:23;19.30;1.00
3876;DHT22;1953;51.222;6.624;2023-08-06T09:48:06;19.20;1.00
3876;DHT22;1953;51.222;6.624;2023-08-06T09:52:52;19.10;1.00
3876;DHT22;1953;51.222;6.624;2023-08-06T09:57:35;18.90;1.00
3876;DHT22;1953;51.222;6.624;2023-08-06T10:02:18;19.00;1.00
3876;DHT22;1953;51.222;6.624;2023-08-06T10:07:04;18.90;1.00
3876;DHT22;1953;51.222;6.624;2023-08-06T10:11:51;18.60;1.00
3876;DHT22;1953;51.222;6.624;2023-08-06T10:16:34;18.30;1.00
3876;DHT22;1953;51.222;6.624;2023-08-06T10:21:17;17.90;1.00
3876;DHT22;1953;51.222;6.624;2023-08-06T10:25:59;17.70;1.00
3876;DHT22;1953;51.222;6.624;2023-08-06T10:30:45;17.70;1.00
3876;DHT22;1953;51.222;6.624;2023-08-06T10:35:30;17.60;1.00
3876;DHT22;1953;51.222;6.624;2023-08-06T10:40:21;17.60;1.00
3876;DHT22;1953;51.222;6.624;2023-08-06T10:45:18;17.50;1.00
3876;DHT22;1953;51.222;6.624;2023-08-06T10:50:02;17.60;1.00
3876;DHT22;1953;51.222;6.624;2023-08-06T10:54:45;17.50;1.00
3876;DHT22;1953;51.222;6.624;2023-08-06T10:59:27;17.40;1.00
3876;DHT22;1953;51.222;6.624;2023-08-06T11:04:10;17.20;1.00
3876;DHT22;1953;51.222;6.624;2023-08-06T11:08:58;17.00;1.00
3876;DHT22;1953;51.222;6.624;2023-08-06T11:13:41;16.90;1.00
3876;DHT22;1953;51.222;6.624;2023-08-06T11:18:24;16.80;1.00
3876;DHT22;1953;51.222;6.624;2023-08-06T11:23:10;16.70;1.00
3876;DHT22;1953;51.222;6.624;2023-08-06T11:27:54;16.70;1.00
3876;DHT22;1953;51.222;6.624;2023-08-06T11:32:45;16.80;1.00
3876;DHT22;1953;51.222;6.624;2023-08-06T11:37:28;16.90;1.00
3876;DHT22;1953;51.222;6.624;2023-08-06T11:42:12;16.90;1.00
3876;DHT22;1953;51.222;6.624;2023-08-06T11:46:56;17.00;1.00
3876;DHT22;1953;51.222;6.624;2023-08-06T11:51:40;17.10;1.00
3876;DHT22;1953;51.222;6.624;2023-08-06T11:56:23;17.20;1.00
3876;DHT22;1953;51.222;6.624;2023-08-06T12:01:06;17.20;1.00
3876;DHT22;1953;51.222;6.624;2023-08-06T12:05:53;17.20;1.00
3876;DHT22;1953;51.222;6.624;2023-08-06T12:10:36;17.40;1.00
3876;DHT22;1953;51.222;6.624;2023-08-06T12:17:03;17.30;1.00
3876;DHT22;1953;51.222;6.624;2023-08-06T12:21:45;17.40;1.00
3876;DHT22;1953;51.222;6.624;2023-08-06T12:26:28;16.90;1.00
3876;DHT22;1953;51.222;6.624;2023-08-06T12:31:11;17.50;1.00
3876;DHT22;1953;51.222;6.624;2023-08-06T12:35:55;17.40;1.00
3876;DHT22;1953;51.222;6.624;2023-08-06T12:40:39;17.40;1.00
3876;DHT22;1953;51.222;6.624;2023-08-06T12:45:22;17.50;1.00
3876;DHT22;1953;51.222;6.624;2023-08-06T12:50:06;17.60;1.00
3876;DHT22;1953;51.222;6.624;2023-08-06T12:54:50;17.80;1.00
3876;DHT22;1953;51.222;6.624;2023-08-06T12:59:32;17.80;1.00
3876;DHT22;1953;51.222;6.624;2023-08-06T13:04:17;17.90;1.00
3876;DHT22;1953;51.222;6.624;2023-08-06T13:09:00;17.80;1.00
3876;DHT22;1953;51.222;6.624;2023-08-06T13:13:43;17.60;1.00
3876;DHT22;1953;51.222;6.624;2023-08-06T13:18:26;17.60;1.00
3876;DHT22;1953;51.222;6.624;2023-08-06T13:23:10;17.70;1.00
3876;DHT22;1953;51.222;6.624;2023-08-06T13:27:53;17.60;1.00
3876;DHT22;1953;51.222;6.624;2023-08-06T13:32:37;17.70;1.00
3876;DHT22;1953;51.222;6.624;2023-08-06T13:37:19;17.70;1.00
3876;DHT22;1953;51.222;6.624;2023-08-06T13:42:02;17.60;1.00
3876;DHT22;1953;51.222;6.624;2023-08-06T13:46:44;17.50;1.00
3876;DHT22;1953;51.222;6.624;2023-08-06T13:51:28;17.60;1.00
3876;DHT22;1953;51.222;6.624;2023-08-06T13:56:11;17.60;1.00
3876;DHT22;1953;51.222;6.624;2023-08-06T14:00:56;17.60;1.00
3876;DHT22;1953;51.222;6.624;2023-08-06T14:05:39;17.60;1.00
3876;DHT22;1953;51.222;6.624;2023-08-06T14:10:23;17.70;1.00
3876;DHT22;1953;51.222;6.624;2023-08-06T14:15:06;17.70;1.00
3876;DHT22;1953;51.222;6.624;2023-08-06T14:19:48;17.80;1.00
3876;DHT22;1953;51.222;6.624;2023-08-06T14:24:31;17.90;1.00
3876;DHT22;1953;51.222;6.624;2023-08-06T14:29:15;18.40;1.00
3876;DHT22;1953;51.222;6.624;2023-08-06T14:33:57;17.80;1.00
3876;DHT22;1953;51.222;6.624;2023-08-06T14:38:40;17.90;1.00
3876;DHT22;1953;51.222;6.624;2023-08-06T14:43:22;17.80;1.00
3876;DHT22;1953;51.222;6.624;2023-08-06T14:48:06;17.90;1.00
3876;DHT22;1953;51.222;6.624;2023-08-06T14:52:49;18.10;1.00
3876;DHT22;1953;51.222;6.624;2023-08-06T14:57:32;18.20;1.00
3876;DHT22;1953;51.222;6.624;2023-08-06T15:02:14;18.40;1.00
3876;DHT22;1953;51.222;6.624;2023-08-06T15:06:58;18.20;1.00
3876;DHT22;1953;51.222;6.624;2023-08-06T15:11:40;18.30;1.00
3876;DHT22;1953;51.222;6.624;2023-08-06T15:16:23;19.10;1.00
3876;DHT22;1953;51.222;6.624;2023-08-06T15:21:05;19.80;1.00
3876;DHT22;1953;51.222;6.624;2023-08-06T15:25:49;20.50;1.00
3876;DHT22;1953;51.222;6.624;2023-08-06T15:30:32;20.50;1.00
3876;DHT22;1953;51.222;6.624;2023-08-06T15:35:14;20.10;1.00
3876;DHT22;1953;51.222;6.624;2023-08-06T15:39:57;19.60;1.00
3876;DHT22;1953;51.222;6.624;2023-08-06T15:44:41;18.80;1.00
3876;DHT22;1953;51.222;6.624;2023-08-06T15:49:24;18.40;1.00
3876;DHT22;1953;51.222;6.624;2023-08-06T15:54:06;18.40;1.00
3876;DHT22;1953;51.222;6.624;2023-08-06T15:58:49;18.30;1.00
3876;DHT22;1953;51.222;6.624;2023-08-06T16:03:33;18.20;1.00
3876;DHT22;1953;51.222;6.624;2023-08-06T16:08:15;18.10;1.00
3876;DHT22;1953;51.222;6.624;2023-08-06T16:12:58;17.90;1.00
3876;DHT22;1953;51.222;6.624;2023-08-06T16:23:20;17.70;1.00
3876;DHT22;1953;51.222;6.624;2023-08-06T16:28:03;17.70;1.00
3876;DHT22;1953;51.222;6.624;2023-08-06T16:32:46;17.60;1.00
3876;DHT22;1953;51.222;6.624;2023-08-06T16:37:29;17.50;1.00
3876;DHT22;1953;51.222;6.624;2023-08-06T16:42:12;17.40;1.00
3876;DHT22;1953;51.222;6.624;2023-08-06T16:46:56;17.20;1.00
3876;DHT22;1953;51.222;6.624;2023-08-06T16:51:38;17.20;1.00
3876;DHT22;1953;51.222;6.624;2023-08-06T16:56:21;17.10;1.00
3876;DHT22;1953;51.222;6.624;2023-08-06T17:01:05;17.00;1.00
3876;DHT22;1953;51.222;6.624;2023-08-06T17:05:48;17.00;1.00
3876;DHT22;1953;51.222;6.624;2023-08-06T17:10:31;17.00;1.00
3876;DHT22;1953;51.222;6.624;2023-08-06T17:15:14;16.90;1.00
3876;DHT22;1953;51.222;6.624;2023-08-06T17:20:00;16.70;1.00
3876;DHT22;1953;51.222;6.624;2023-08-06T17:24:43;16.50;1.00
3876;DHT22;1953;51.222;6.624;2023-08-06T17:29:26;16.40;1.00
3876;DHT22;1953;51.222;6.624;2023-08-06T17:34:08;16.20;1.00
3876;DHT22;1953;51.222;6.624;2023-08-06T17:38:52;16.30;1.00
3876;DHT22;1953;51.222;6.624;2023-08-06T17:43:35;16.20;1.00
3876;DHT22;1953;51.222;6.624;2023-08-06T17:48:17;16.20;1.00
3876;DHT22;1953;51.222;6.624;2023-08-06T17:53:00;16.10;1.00
3876;DHT22;1953;51.222;6.624;2023-08-06T17:57:44;16.10;1.00
3876;DHT22;1953;51.222;6.624;2023-08-06T18:02:26;16.10;1.00
3876;DHT22;1953;51.222;6.624;2023-08-06T18:07:09;16.10;1.00
3876;DHT22;1953;51.222;6.624;2023-08-06T18:11:51;16.00;1.00
3876;DHT22;1953;51.222;6.624;2023-08-06T18:16:35;15.90;1.00
3876;DHT22;1953;51.222;6.624;2023-08-06T18:21:18;15.80;1.00
3876;DHT22;1953;51.222;6.624;2023-08-06T18:26:01;15.80;1.00
3876;DHT22;1953;51.222;6.624;2023-08-06T18:30:44;15.70;1.00
3876;DHT22;1953;51.222;6.624;2023-08-06T18:35:28;15.60;1.00
3876;DHT22;1953;51.222;6.624;2023-08-06T18:40:11;15.60;1.00
3876;DHT22;1953;51.222;6.624;2023-08-06T18:44:53;15.60;1.00
3876;DHT22;1953;51.222;6.624;2023-08-06T18:49:36;15.40;1.00
3876;DHT22;1953;51.222;6.624;2023-08-06T18:54:20;15.50;1.00
3876;DHT22;1953;51.222;6.624;2023-08-06T18:59:04;15.50;1.00
3876;DHT22;1953;51.222;6.624;2023-08-06T19:03:47;15.50;1.00
3876;DHT22;1953;51.222;6.624;2023-08-06T19:08:30;15.50;1.00
3876;DHT22;1953;51.222;6.624;2023-08-06T19:13:14;15.50;1.00
3876;DHT22;1953;51.222;6.624;2023-08-06T19:17:57;15.30;1.00
3876;DHT22;1953;51.222;6.624;2023-08-06T19:22:39;15.30;1.00
3876;DHT22;1953;51.222;6.624;2023-08-06T19:27:22;15.30;1.00
3876;DHT22;1953;51.222;6.624;2023-08-06T19:32:06;15.30;1.00
3876;DHT22;1953;51.222;6.624;2023-08-06T19:36:49;16.20;1.00
3876;DHT22;1953;51.222;6.624;2023-08-06T19:41:32;15.30;1.00
3876;DHT22;1953;51.222;6.624;2023-08-06T19:46:15;15.30;1.00
3876;DHT22;1953;51.222;6.624;2023-08-06T19:50:59;15.20;1.00
3876;DHT22;1953;51.222;6.624;2023-08-06T19:55:42;15.20;1.00
3876;DHT22;1953;51.222;6.624;2023-08-06T20:00:25;15.20;1.00
3876;DHT22;1953;51.222;6.624;2023-08-06T20:05:08;15.20;1.00
3876;DHT22;1953;51.222;6.624;2023-08-06T20:09:52;15.10;1.00
3876;DHT22;1953;51.222;6.624;2023-08-06T20:14:34;15.20;1.00
3876;DHT22;1953;51.222;6.624;2023-08-06T20:19:19;15.10;1.00
3876;DHT22;1953;51.222;6.624;2023-08-06T20:24:01;15.20;1.00
3876;DHT22;1953;51.222;6.624;2023-08-06T20:28:45;15.10;1.00
3876;DHT22;1953;51.222;6.624;2023-08-06T20:33:29;15.10;1.00
3876;DHT22;1953;51.222;6.624;2023-08-06T20:38:12;15.10;1.00
3876;DHT22;1953;51.222;6.624;2023-08-06T20:42:54;15.10;1.00
3876;DHT22;1953;51.222;6.624;2023-08-06T20:47:38;15.00;1.00
3876;DHT22;1953;51.222;6.624;2023-08-06T20:52:21;15.00;1.00
3876;DHT22;1953;51.222;6.624;2023-08-06T20:57:04;15.00;1.00
3876;DHT22;1953;51.222;6.624;2023-08-06T21:01:47;15.00;1.00
3876;DHT22;1953;51.222;6.624;2023-08-06T21:06:30;15.00;1.00
3876;DHT22;1953;51.222;6.624;2023-08-06T21:11:13;15.10;1.00
3876;DHT22;1953;51.222;6.624;2023-08-06T21:15:58;15.00;1.00
3876;DHT22;1953;51.222;6.624;2023-08-06T21:20:41;15.00;1.00
3876;DHT22;1953;51.222;6.624;2023-08-06T21:25:24;14.90;1.00
3876;DHT22;1953;51.222;6.624;2023-08-06T21:30:08;14.80;1.00
3876;DHT22;1953;51.222;6.624;2023-08-06T21:34:53;14.90;1.00
3876;DHT22;1953;51.222;6.624;2023-08-06T21:39:35;14.90;1.00
3876;DHT22;1953;51.222;6.624;2023-08-06T21:44:19;14.90;1.00
3876;DHT22;1953;51.222;6.624;2023-08-06T21:49:02;14.90;1.00
3876;DHT22;1953;51.222;6.624;2023-08-06T21:53:45;14.90;1.00
3876;DHT22;1953;51.222;6.624;2023-08-06T21:58:27;14.90;1.00
3876;DHT22;1953;51.222;6.624;2023-08-06T22:03:11;14.80;1.00
3876;DHT22;1953;51.222;6.624;2023-08-06T22:07:54;14.80;1.00
3876;DHT22;1953;51.222;6.624;2023-08-06T22:12:36;14.80;1.00
3876;DHT22;1953;51.222;6.624;2023-08-06T22:17:18;14.90;1.00
3876;DHT22;1953;51.222;6.624;2023-08-06T22:22:03;14.80;1.00
3876;DHT22;1953;51.222;6.624;2023-08-06T22:26:45;14.80;1.00
3876;DHT22;1953;51.222;6.624;2023-08-06T22:31:28;14.90;1.00
3876;DHT22;1953;51.222;6.624;2023-08-06T22:36:10;14.90;1.00
3876;DHT22;1953;51.222;6.624;2023-08-06T22:40:54;14.80;1.00
3876;DHT22;1953;51.222;6.624;2023-08-06T22:45:36;14.90;1.00
3876;DHT22;1953;51.222;6.624;2023-08-06T22:50:19;14.80;1.00
3876;DHT22;1953;51.222;6.624;2023-08-06T22:55:02;14.80;1.00
3876;DHT22;1953;51.222;6.624;2023-08-06T22:59:46;14.90;1.00
3876;DHT22;1953;51.222;6.624;2023-08-06T23:04:29;14.90;1.00
3876;DHT22;1953;51.222;6.624;2023-08-06T23:09:12;14.80;1.00
3876;DHT22;1953;51.222;6.624;2023-08-06T23:13:54;14.80;1.00
3876;DHT22;1953;51.222;6.624;2023-08-06T23:18:38;14.70;1.00
3876;DHT22;1953;51.222;6.624;2023-08-06T23:23:20;14.80;1.00
3876;DHT22;1953;51.222;6.624;2023-08-06T23:28:03;14.80;1.00
3876;DHT22;1953;51.222;6.624;2023-08-06T23:32:46;14.70;1.00
3876;DHT22;1953;51.222;6.624;2023-08-06T23:37:30;14.70;1.00
3876;DHT22;1953;51.222;6.624;2023-08-06T23:42:14;14.70;1.00
3876;DHT22;1953;51.222;6.624;2023-08-06T23:46:56;14.60;1.00
3876;DHT22;1953;51.222;6.624;2023-08-06T23:51:39;14.50;1.00
3876;DHT22;1953;51.222;6.624;2023-08-06T23:56:23;14.40;1.00
